Time;durP1;ratioP1;P1;durP2;ratioP2;P2;SDS_P1;SDS_P2;PMS_P1;PMS_P2;Temp;Humidity;BMP_temperature;BMP_pressure;BME280_temperature;BME280_humidity;BME280_pressure;Samples;Min_cycle;Max_cycle;Signal;HPM_P1;HPM_P2
2023/12/06 00:00:52;;;;;;;1.00;1.00;;;;;;;10.88;100.00;94980.81;5131967;27;20848;-57
2023/12/06 00:03:21;;;;;;;2.03;1.93;;;;;;;10.90;100.00;94976.00;5132270;27;20454;-57
2023/12/06 00:05:49;;;;;;;0.40;0.30;;;;;;;10.87;100.00;94972.06;5132539;27;20514;-58
2023/12/06 00:08:18;;;;;;;0.60;0.60;;;;;;;10.84;100.00;94975.25;5132445;27;20427;-57
2023/12/06 00:10:47;;;;;;;0.50;0.30;;;;;;;10.85;100.00;94974.19;5132417;27;20445;-57
2023/12/06 00:13:15;;;;;;;0.77;0.77;;;;;;;10.82;100.00;94970.25;5131803;28;20436;-58
2023/12/06 00:15:45;;;;;;;1.10;0.50;;;;;;;10.84;100.00;94973.41;5132436;27;20435;-58
2023/12/06 00:18:14;;;;;;;1.40;1.30;;;;;;;10.82;100.00;94972.09;5131988;28;20438;-58
2023/12/06 00:20:43;;;;;;;0.70;0.70;;;;;;;10.83;100.00;94978.97;5132443;28;20965;-59
2023/12/06 00:23:11;;;;;;;0.67;0.67;;;;;;;10.85;100.00;94974.97;5132129;27;20430;-59
2023/12/06 00:25:39;;;;;;;1.07;0.40;;;;;;;10.69;100.00;94946.22;5132342;27;20462;-58
2023/12/06 00:28:07;;;;;;;0.60;0.60;;;;;;;10.61;100.00;94955.56;5132574;27;20443;-58
2023/12/06 00:30:36;;;;;;;0.40;0.30;;;;;;;10.50;100.00;94969.94;5131375;28;20521;-58
2023/12/06 00:33:07;;;;;;;0.70;0.40;;;;;;;10.43;100.00;94974.00;5131962;28;20508;-58
2023/12/06 00:35:36;;;;;;;1.93;1.47;;;;;;;10.58;100.00;94964.06;5132305;28;20442;-58
2023/12/06 00:38:04;;;;;;;1.27;1.23;;;;;;;10.66;100.00;94960.03;5132179;28;20438;-58
2023/12/06 00:40:33;;;;;;;2.30;2.20;;;;;;;10.72;100.00;94965.03;5134605;27;20434;-59
2023/12/06 00:43:03;;;;;;;1.43;1.33;;;;;;;10.67;100.00;94938.56;5136643;27;20477;-58
2023/12/06 00:45:32;;;;;;;3.50;1.63;;;;;;;10.80;100.00;94953.81;5136236;27;20491;-59
2023/12/06 00:48:00;;;;;;;1.63;1.53;;;;;;;10.77;100.00;94961.53;5136483;27;20438;-58
2023/12/06 00:50:31;;;;;;;1.37;1.37;;;;;;;10.74;100.00;94949.63;5135858;27;21040;-58
2023/12/06 00:52:59;;;;;;;0.70;0.70;;;;;;;10.71;100.00;94944.09;5135925;27;20466;-58
2023/12/06 00:55:28;;;;;;;0.50;0.50;;;;;;;10.72;100.00;94949.13;5135245;27;20434;-58
2023/12/06 00:57:57;;;;;;;1.53;0.70;;;;;;;10.71;100.00;94952.84;5136359;27;20791;-58
2023/12/06 01:00:25;;;;;;;0.97;0.73;;;;;;;10.79;100.00;94948.78;5135998;27;20434;-58
2023/12/06 01:02:54;;;;;;;0.60;0.40;;;;;;;10.79;100.00;94943.50;5135358;27;20474;-58
2023/12/06 01:05:23;;;;;;;1.43;0.40;;;;;;;10.83;100.00;94947.94;5108656;27;20494;-58
2023/12/06 01:07:52;;;;;;;1.17;1.17;;;;;;;10.81;100.00;94934.19;5135733;27;20491;-58
2023/12/06 01:10:21;;;;;;;0.87;0.87;;;;;;;10.81;100.00;94938.69;5135770;27;20438;-58
2023/12/06 01:12:51;;;;;;;0.40;0.30;;;;;;;10.76;100.00;94936.09;5134849;27;20465;-58
2023/12/06 01:15:20;;;;;;;0.60;0.60;;;;;;;10.80;100.00;94939.78;5135617;27;20961;-58
2023/12/06 01:17:49;;;;;;;0.40;0.30;;;;;;;10.86;100.00;94938.66;5135774;27;20435;-57
2023/12/06 01:20:17;;;;;;;0.83;0.70;;;;;;;10.83;100.00;94932.03;5135398;27;20950;-58
2023/12/06 01:22:46;;;;;;;1.80;0.90;;;;;;;10.78;100.00;94920.69;5134736;27;20470;-57
2023/12/06 01:25:16;;;;;;;3.00;0.93;;;;;;;10.85;100.00;94926.47;5136116;27;20438;-58
2023/12/06 01:27:44;;;;;;;1.23;1.00;;;;;;;10.87;100.00;94926.19;5135687;27;20456;-57
2023/12/06 01:30:13;;;;;;;0.40;0.30;;;;;;;10.84;100.00;94919.59;5135559;27;20439;-57
2023/12/06 01:32:42;;;;;;;1.53;0.50;;;;;;;10.61;100.00;94899.91;5135069;27;20438;-58
2023/12/06 01:35:11;;;;;;;0.97;0.97;;;;;;;10.70;100.00;94911.47;5135447;27;20434;-57
2023/12/06 01:37:39;;;;;;;3.63;1.23;;;;;;;10.36;100.00;94915.22;5135137;27;20452;-58
2023/12/06 01:40:09;;;;;;;1.70;1.60;;;;;;;10.24;100.00;94915.59;5135678;27;20445;-58
2023/12/06 01:42:39;;;;;;;0.73;0.73;;;;;;;10.14;100.00;94915.69;5134779;27;20483;-58
2023/12/06 01:45:09;;;;;;;1.70;1.63;;;;;;;10.10;100.00;94904.81;5135105;27;20462;-58
2023/12/06 01:47:38;;;;;;;0.73;0.60;;;;;;;10.06;100.00;94908.28;5134913;27;20495;-58
2023/12/06 01:50:09;;;;;;;0.50;0.50;;;;;;;10.04;100.00;94905.13;5134438;27;20473;-57
2023/12/06 01:52:38;;;;;;;0.60;0.60;;;;;;;10.32;100.00;94907.06;5134491;27;20438;-58
2023/12/06 01:55:07;;;;;;;0.73;0.73;;;;;;;10.33;100.00;94903.34;5134758;27;20434;-57
2023/12/06 01:57:37;;;;;;;0.50;0.47;;;;;;;10.41;100.00;94891.34;5135135;27;20430;-58
2023/12/06 02:00:09;;;;;;;0.90;0.70;;;;;;;10.51;100.00;94894.72;5133935;27;20438;-58
2023/12/06 02:02:38;;;;;;;0.90;0.90;;;;;;;10.50;100.00;94892.34;5134208;27;20461;-57
2023/12/06 02:05:07;;;;;;;0.70;0.67;;;;;;;10.33;100.00;94884.78;5134256;27;20934;-57
2023/12/06 02:07:36;;;;;;;0.50;0.50;;;;;;;10.48;100.00;94881.22;5134879;27;20431;-57
2023/12/06 02:10:05;;;;;;;0.47;0.47;;;;;;;10.58;100.00;94889.06;5134486;27;20491;-57
2023/12/06 02:12:34;;;;;;;1.20;1.10;;;;;;;10.59;100.00;94891.47;5134112;27;20447;-57
2023/12/06 02:15:03;;;;;;;0.50;0.43;;;;;;;10.64;100.00;94880.81;5134121;27;20426;-57
2023/12/06 02:17:33;;;;;;;1.27;1.17;;;;;;;10.56;100.00;94880.63;5134592;27;20442;-57
2023/12/06 02:20:03;;;;;;;0.97;0.87;;;;;;;10.40;100.00;94850.06;5107771;27;20431;-56
2023/12/06 02:22:32;;;;;;;0.70;0.70;;;;;;;10.61;100.00;94877.94;5120224;27;20471;-57
2023/12/06 02:25:04;;;;;;;5.50;0.70;;;;;;;10.64;100.00;94875.53;5134537;27;20954;-57
2023/12/06 02:27:34;;;;;;;1.27;1.17;;;;;;;10.44;100.00;94877.56;5134172;27;20463;-57
2023/12/06 02:30:02;;;;;;;1.23;0.57;;;;;;;10.07;100.00;94873.56;5134914;27;20438;-58
2023/12/06 02:32:31;;;;;;;5.73;0.67;;;;;;;10.31;100.00;94870.25;5132982;27;20431;-57
2023/12/06 02:35:02;;;;;;;0.77;0.77;;;;;;;10.47;100.00;94871.72;5134237;27;20446;-58
2023/12/06 02:37:30;;;;;;;1.20;1.20;;;;;;;10.54;100.00;94867.66;5134121;27;20544;-57
2023/12/06 02:40:03;;;;;;;1.70;1.60;;;;;;;10.57;100.00;94863.66;5133290;27;20460;-57
2023/12/06 02:42:33;;;;;;;1.13;1.13;;;;;;;10.62;100.00;94856.47;5133953;27;20538;-58
2023/12/06 02:45:02;;;;;;;0.80;0.80;;;;;;;10.70;100.00;94858.47;5133895;27;20438;-58
2023/12/06 02:47:31;;;;;;;2.00;0.50;;;;;;;10.68;100.00;94854.53;5134052;27;20484;-58
2023/12/06 02:50:00;;;;;;;0.60;0.60;;;;;;;10.67;100.00;94850.31;5133135;27;20466;-58
2023/12/06 02:52:28;;;;;;;0.73;0.50;;;;;;;10.61;100.00;94838.16;5134383;27;20431;-58
2023/12/06 02:54:57;;;;;;;3.07;1.37;;;;;;;10.70;100.00;94852.41;5133422;27;20441;-58
2023/12/06 02:57:25;;;;;;;0.87;0.87;;;;;;;10.68;100.00;94852.66;5133537;27;20431;-58
2023/12/06 02:59:55;;;;;;;2.00;1.80;;;;;;;10.63;100.00;94838.69;5133545;27;20467;-58
2023/12/06 03:02:24;;;;;;;1.17;1.17;;;;;;;10.61;100.00;94843.47;5133235;27;20469;-58
2023/12/06 03:04:52;;;;;;;0.50;0.50;;;;;;;10.60;100.00;94840.03;5133799;27;20435;-58
2023/12/06 03:07:21;;;;;;;0.50;0.50;;;;;;;10.62;100.00;94832.63;5133224;27;20487;-58
2023/12/06 03:09:51;;;;;;;0.77;0.53;;;;;;;10.63;100.00;94833.38;5133333;27;20434;-57
2023/12/06 03:12:19;;;;;;;0.93;0.93;;;;;;;10.65;100.00;94832.03;5133284;27;20456;-57
2023/12/06 03:14:48;;;;;;;0.57;0.57;;;;;;;10.62;100.00;94826.50;5133384;27;20513;-57
2023/12/06 03:17:18;;;;;;;0.60;0.57;;;;;;;10.64;100.00;94829.66;5133710;27;20438;-57
2023/12/06 03:19:47;;;;;;;1.23;1.13;;;;;;;10.66;100.00;94828.31;5133030;27;20449;-57
2023/12/06 03:22:16;;;;;;;0.70;0.70;;;;;;;10.69;100.00;94821.66;5133528;27;20438;-58
2023/12/06 03:24:44;;;;;;;1.00;0.83;;;;;;;10.71;100.00;94820.31;5133058;27;20522;-57
2023/12/06 03:27:13;;;;;;;0.47;0.30;;;;;;;10.64;100.00;94819.88;5133126;27;20926;-57
2023/12/06 03:29:42;;;;;;;0.50;0.33;;;;;;;10.60;100.00;94818.06;5125950;27;20932;-57
2023/12/06 03:32:11;;;;;;;0.67;0.67;;;;;;;10.58;100.00;94817.53;5127269;27;20806;-57
2023/12/06 03:34:41;;;;;;;0.60;0.60;;;;;;;10.49;100.00;94801.47;5133091;27;20525;-57
2023/12/06 03:37:09;;;;;;;0.70;0.63;;;;;;;10.56;100.00;94803.78;5131038;27;20814;-57
2023/12/06 03:39:38;;;;;;;0.50;0.50;;;;;;;10.60;100.00;94818.06;5121933;27;20430;-57
2023/12/06 03:42:07;;;;;;;1.30;1.30;;;;;;;10.53;100.00;94817.59;5132473;27;20445;-57
2023/12/06 03:44:35;;;;;;;1.27;1.27;;;;;;;10.48;100.00;94813.13;5132932;27;20478;-57
2023/12/06 03:47:04;;;;;;;0.53;0.50;;;;;;;10.30;100.00;94807.75;5132396;27;20848;-57
2023/12/06 03:49:33;;;;;;;1.37;0.67;;;;;;;10.07;100.00;94819.81;5132635;27;20465;-57
2023/12/06 03:52:03;;;;;;;0.80;0.80;;;;;;;9.94;100.00;94820.47;5132530;27;20438;-57
2023/12/06 03:54:32;;;;;;;0.87;0.77;;;;;;;9.85;100.00;94816.84;5133245;27;20513;-57
2023/12/06 03:57:01;;;;;;;0.90;0.60;;;;;;;9.89;100.00;94821.28;5132310;27;20778;-57
2023/12/06 03:59:30;;;;;;;0.70;0.70;;;;;;;9.91;100.00;94811.25;5132627;27;20934;-57
2023/12/06 04:01:58;;;;;;;1.03;1.03;;;;;;;9.98;100.00;94816.19;5132770;27;20457;-58
2023/12/06 04:04:27;;;;;;;2.27;0.50;;;;;;;10.05;100.00;94808.72;5131971;27;20470;-57
2023/12/06 04:06:55;;;;;;;0.90;0.90;;;;;;;10.25;100.00;94815.72;5132361;27;20521;-57
2023/12/06 04:09:26;;;;;;;0.50;0.40;;;;;;;10.23;100.00;94805.44;5132384;27;20997;-57
2023/12/06 04:11:54;;;;;;;1.10;1.00;;;;;;;10.35;100.00;94813.00;5128588;28;20443;-57
2023/12/06 04:14:23;;;;;;;1.13;0.47;;;;;;;10.30;100.00;94807.75;5132327;27;20470;-57
2023/12/06 04:16:53;;;;;;;4.30;0.73;;;;;;;9.64;100.00;94720.94;5132430;27;20953;-57
2023/12/06 04:19:21;;;;;;;0.60;0.60;;;;;;;10.17;100.00;94804.69;5132151;27;20438;-57
2023/12/06 04:21:51;;;;;;;1.50;0.30;;;;;;;10.28;100.00;94802.72;5132206;28;20438;-57
2023/12/06 04:24:19;;;;;;;0.90;0.90;;;;;;;10.00;100.00;94806.13;5131568;28;20870;-57
2023/12/06 04:26:49;;;;;;;1.50;0.83;;;;;;;10.00;100.00;94804.28;5132554;28;20462;-57
2023/12/06 04:29:18;;;;;;;0.50;0.50;;;;;;;10.07;100.00;94804.72;5131873;27;20442;-57
2023/12/06 04:31:46;;;;;;;0.57;0.50;;;;;;;9.98;100.00;94809.06;5132188;27;20442;-57
2023/12/06 04:34:15;;;;;;;2.30;0.90;;;;;;;10.02;100.00;94806.63;5131720;28;20530;-57
2023/12/06 04:36:44;;;;;;;2.73;2.53;;;;;;;9.76;100.00;94806.06;5131983;28;20529;-57
2023/12/06 04:39:12;;;;;;;0.90;0.80;;;;;;;9.62;100.00;94802.44;5131523;28;21005;-58
2023/12/06 04:41:41;;;;;;;1.53;1.00;;;;;;;9.42;100.00;94789.34;5132351;27;20434;-56
2023/12/06 04:44:11;;;;;;;1.27;1.27;;;;;;;9.00;100.00;94765.28;5131247;28;20469;-56
2023/12/06 04:46:39;;;;;;;12.70;2.63;;;;;;;9.23;100.00;94805.09;5132177;28;21012;-57
2023/12/06 04:49:09;;;;;;;3.07;2.87;;;;;;;9.21;100.00;94807.19;5131530;28;20474;-57
2023/12/06 04:51:37;;;;;;;1.57;1.23;;;;;;;9.41;100.00;94807.06;5131204;28;20447;-57
2023/12/06 04:54:06;;;;;;;1.60;1.50;;;;;;;9.76;100.00;94807.91;5131997;27;20961;-57
2023/12/06 04:56:35;;;;;;;4.37;0.80;;;;;;;9.78;100.00;94801.28;5131905;28;20467;-57
2023/12/06 04:59:03;;;;;;;0.80;0.80;;;;;;;9.74;100.00;94800.22;5131955;27;20466;-58
2023/12/06 05:01:33;;;;;;;1.57;0.60;;;;;;;9.71;100.00;94792.06;5131774;28;20446;-57
2023/12/06 05:04:03;;;;;;;1.50;1.40;;;;;;;9.86;100.00;94807.84;5131476;28;21150;-57
2023/12/06 05:06:32;;;;;;;2.30;2.10;;;;;;;9.95;100.00;94812.25;5131060;28;20435;-57
2023/12/06 05:09:00;;;;;;;0.80;0.43;;;;;;;9.94;100.00;94799.31;5131719;27;20443;-57
2023/12/06 05:11:29;;;;;;;0.63;0.60;;;;;;;9.93;100.00;94795.06;5131462;28;21045;-57
2023/12/06 05:13:57;;;;;;;1.47;1.37;;;;;;;10.04;100.00;94802.63;5131840;27;20442;-57
2023/12/06 05:16:26;;;;;;;0.43;0.40;;;;;;;10.04;100.00;94797.34;5130592;28;20438;-56
2023/12/06 05:18:56;;;;;;;0.40;0.40;;;;;;;10.18;100.00;94798.31;5131378;28;20438;-56
2023/12/06 05:21:24;;;;;;;0.40;0.33;;;;;;;10.25;100.00;94805.13;5131276;27;20469;-56
2023/12/06 05:23:53;;;;;;;1.03;0.70;;;;;;;10.22;100.00;94800.41;5131903;27;20475;-56
2023/12/06 05:26:23;;;;;;;0.97;0.53;;;;;;;9.91;100.00;94799.84;5131413;27;20438;-56
2023/12/06 05:28:52;;;;;;;0.50;0.50;;;;;;;9.93;100.00;94803.81;5134888;27;20494;-56
2023/12/06 05:31:21;;;;;;;1.20;0.90;;;;;;;9.89;100.00;94802.75;5134163;27;20438;-57
2023/12/06 05:33:50;;;;;;;0.93;0.93;;;;;;;9.81;100.00;94806.03;5119609;27;20436;-57
2023/12/06 05:36:19;;;;;;;0.60;0.60;;;;;;;9.73;100.00;94793.38;5103813;27;20576;-57
2023/12/06 05:38:48;;;;;;;2.33;1.10;;;;;;;10.02;100.00;94802.13;5130228;27;20449;-56
2023/12/06 05:41:17;;;;;;;1.10;1.07;;;;;;;10.09;100.00;94807.13;5134432;27;20931;-57
2023/12/06 05:43:45;;;;;;;2.33;1.97;;;;;;;9.85;100.00;94806.25;5134479;27;20441;-58
2023/12/06 05:46:14;;;;;;;1.40;1.30;;;;;;;9.63;100.00;94811.97;5134896;27;20431;-57
2023/12/06 05:48:43;;;;;;;2.33;1.33;;;;;;;9.39;100.00;94818.97;5133986;27;20469;-57
2023/12/06 05:51:12;;;;;;;1.70;1.60;;;;;;;9.31;100.00;94816.94;5134239;27;20435;-57
2023/12/06 05:53:42;;;;;;;1.60;1.50;;;;;;;9.52;100.00;94807.81;5133985;27;20445;-57
2023/12/06 05:56:10;;;;;;;1.40;1.30;;;;;;;9.62;100.00;94806.94;5133972;27;20537;-57
2023/12/06 05:58:39;;;;;;;2.30;0.90;;;;;;;9.39;100.00;94816.34;5133627;27;20515;-57
2023/12/06 06:01:08;;;;;;;2.00;1.90;;;;;;;9.53;100.00;94819.97;5134605;27;20491;-57
2023/12/06 06:03:36;;;;;;;0.87;0.87;;;;;;;9.82;100.00;94814.72;5134242;27;20445;-57
2023/12/06 06:06:07;;;;;;;1.00;0.80;;;;;;;9.90;100.00;94814.94;5134342;27;20481;-57
2023/12/06 06:08:36;;;;;;;2.17;2.07;;;;;;;9.89;100.00;94813.34;5107788;27;20495;-57
2023/12/06 06:11:06;;;;;;;1.57;1.57;;;;;;;9.97;100.00;94810.13;5133850;27;20442;-57
2023/12/06 06:13:35;;;;;;;3.43;2.00;;;;;;;9.94;100.00;94813.31;5107979;27;20438;-57
2023/12/06 06:16:03;;;;;;;1.50;1.40;;;;;;;10.06;100.00;94812.97;5134229;27;20477;-57
2023/12/06 06:18:32;;;;;;;1.17;1.07;;;;;;;10.09;100.00;94809.78;5134036;27;20470;-58
2023/12/06 06:21:05;;;;;;;0.60;0.60;;;;;;;10.10;100.00;94819.28;5133682;27;20929;-57
2023/12/06 06:23:34;;;;;;;0.70;0.67;;;;;;;10.02;100.00;94809.28;5133988;27;20438;-56
2023/12/06 06:26:03;;;;;;;4.57;0.50;;;;;;;9.97;100.00;94815.41;5133973;27;20484;-57
2023/12/06 06:28:33;;;;;;;1.43;1.33;;;;;;;9.95;100.00;94812.25;5134462;27;20435;-57
2023/12/06 06:31:03;;;;;;;0.50;0.40;;;;;;;9.67;100.00;94789.19;5129837;27;20447;-57
2023/12/06 06:33:32;;;;;;;1.63;1.53;;;;;;;10.02;100.00;94818.00;5125601;27;20526;-57
2023/12/06 06:36:01;;;;;;;4.83;0.97;;;;;;;10.01;100.00;94800.56;5133892;27;20437;-57
2023/12/06 06:38:29;;;;;;;2.20;1.40;;;;;;;10.05;100.00;94811.38;5134013;27;20466;-57
2023/12/06 06:40:58;;;;;;;2.93;1.57;;;;;;;10.14;100.00;94810.53;5134137;27;20491;-58
2023/12/06 06:43:27;;;;;;;8.10;0.83;;;;;;;10.17;100.00;94817.91;5133733;27;20478;-57
2023/12/06 06:45:57;;;;;;;1.20;0.83;;;;;;;10.06;100.00;94813.75;5134018;27;20474;-57
2023/12/06 06:48:26;;;;;;;1.13;1.03;;;;;;;10.23;100.00;94815.22;5133605;27;20934;-57
2023/12/06 06:50:54;;;;;;;0.53;0.47;;;;;;;10.34;100.00;94814.88;5132963;27;20430;-57
2023/12/06 06:53:23;;;;;;;1.73;1.63;;;;;;;10.19;100.00;94812.38;5133236;27;20487;-57
2023/12/06 06:55:53;;;;;;;2.17;0.83;;;;;;;10.27;100.00;94805.66;5133644;27;20791;-57
2023/12/06 06:58:21;;;;;;;2.60;1.03;;;;;;;10.37;100.00;94802.94;5133091;27;20491;-57
2023/12/06 07:00:50;;;;;;;1.40;1.30;;;;;;;10.26;100.00;94812.03;5133504;27;20473;-57
2023/12/06 07:03:21;;;;;;;1.70;1.33;;;;;;;10.21;100.00;94796.97;5133474;27;20553;-57
2023/12/06 07:05:49;;;;;;;1.40;1.20;;;;;;;10.04;100.00;94801.88;5133183;27;21023;-57
2023/12/06 07:08:18;;;;;;;2.40;1.77;;;;;;;10.21;100.00;94794.31;5133095;27;21003;-57
2023/12/06 07:10:48;;;;;;;3.80;1.17;;;;;;;10.31;100.00;94802.19;5133552;27;20495;-57
2023/12/06 07:13:17;;;;;;;1.33;1.33;;;;;;;10.29;100.00;94800.88;5133096;27;20433;-57
2023/12/06 07:15:46;;;;;;;0.73;0.73;;;;;;;10.24;100.00;94791.13;5132471;27;20430;-57
2023/12/06 07:18:14;;;;;;;2.27;2.07;;;;;;;10.02;100.00;94796.84;5132418;27;20525;-55
2023/12/06 07:20:45;;;;;;;2.07;1.97;;;;;;;9.97;100.00;94796.88;5133168;27;20817;-57
2023/12/06 07:23:18;;;;;;;6.07;3.90;;;;;;;9.82;100.00;94798.84;5133097;27;20474;-57
2023/12/06 07:25:47;;;;;;;7.30;3.07;;;;;;;9.70;100.00;94793.13;5132578;27;20879;-56
2023/12/06 07:28:15;;;;;;;1.80;1.70;;;;;;;9.83;100.00;94798.59;5133058;27;20431;-56
2023/12/06 07:30:44;;;;;;;2.33;2.03;;;;;;;9.86;100.00;94800.69;5132708;27;20462;-56
2023/12/06 07:33:12;;;;;;;2.90;2.70;;;;;;;9.73;100.00;94803.16;5133066;27;20430;-56
2023/12/06 07:35:42;;;;;;;3.57;3.37;;;;;;;9.77;100.00;94790.94;5132210;27;20480;-56
2023/12/06 07:38:13;;;;;;;1.43;1.33;;;;;;;10.04;100.00;94800.00;5132594;27;20447;-56
2023/12/06 07:40:42;;;;;;;2.80;1.33;;;;;;;10.30;100.00;94797.94;5131977;27;20973;-56
2023/12/06 07:43:10;;;;;;;1.00;0.90;;;;;;;10.50;100.00;94791.66;5132714;27;20494;-56
2023/12/06 07:45:39;;;;;;;2.63;2.47;;;;;;;10.45;100.00;94792.50;5132759;27;20474;-56
2023/12/06 07:48:08;;;;;;;2.30;2.10;;;;;;;10.27;100.00;94789.78;5132989;27;20442;-57
2023/12/06 07:50:36;;;;;;;1.37;1.27;;;;;;;10.42;100.00;94786.97;5131208;27;20466;-57
2023/12/06 07:53:07;;;;;;;2.97;1.07;;;;;;;10.26;100.00;94780.25;5132695;27;20499;-56
2023/12/06 07:55:37;;;;;;;3.23;3.03;;;;;;;10.33;100.00;94786.00;5105541;27;20435;-57
2023/12/06 07:58:06;;;;;;;1.23;0.97;;;;;;;10.30;100.00;94779.41;5132510;27;21006;-56
2023/12/06 08:00:36;;;;;;;1.57;1.47;;;;;;;10.72;100.00;94784.00;5132224;27;20972;-56
2023/12/06 08:03:05;;;;;;;1.10;1.00;;;;;;;10.84;100.00;94785.19;5132408;27;20829;-55
2023/12/06 08:05:35;;;;;;;0.53;0.50;;;;;;;10.89;100.00;94786.19;5132437;27;21146;-56
2023/12/06 08:08:04;;;;;;;0.70;0.70;;;;;;;10.67;100.00;94776.91;5131443;27;20535;-55
2023/12/06 08:10:33;;;;;;;1.57;1.07;;;;;;;10.83;100.00;94780.94;5132137;27;20927;-56
2023/12/06 08:13:03;;;;;;;0.87;0.87;;;;;;;10.83;100.00;94790.75;5132403;27;20584;-55
2023/12/06 08:15:32;;;;;;;0.93;0.93;;;;;;;10.99;100.00;94784.19;5132151;28;20474;-57
2023/12/06 08:18:00;;;;;;;4.70;1.40;;;;;;;11.13;100.00;94781.66;5131699;27;20438;-56
2023/12/06 08:20:29;;;;;;;4.00;0.80;;;;;;;11.17;100.00;94778.13;5132234;27;20495;-56
2023/12/06 08:22:58;;;;;;;5.93;2.00;;;;;;;10.96;100.00;94779.47;5131635;28;20495;-56
2023/12/06 08:25:27;;;;;;;2.70;2.40;;;;;;;10.99;100.00;94778.09;5131655;27;20474;-57
2023/12/06 08:27:55;;;;;;;1.87;1.77;;;;;;;11.04;100.00;94784.13;5132120;27;20491;-56
2023/12/06 08:30:26;;;;;;;2.10;1.83;;;;;;;11.19;100.00;94786.59;5132037;28;20448;-56
2023/12/06 08:32:54;;;;;;;1.10;1.00;;;;;;;11.08;100.00;94782.47;5131958;28;20434;-55
2023/12/06 08:35:23;;;;;;;1.57;1.47;;;;;;;11.20;100.00;94782.88;5131908;28;20517;-57
2023/12/06 08:37:52;;;;;;;0.60;0.60;;;;;;;10.93;100.00;94763.34;5105867;28;20442;-55
2023/12/06 08:40:21;;;;;;;1.63;1.40;;;;;;;11.26;100.00;94786.22;5131216;28;20441;-56
2023/12/06 08:42:50;;;;;;;0.80;0.80;;;;;;;11.24;100.00;94788.38;5124122;28;20489;-57
2023/12/06 08:45:19;;;;;;;1.30;1.13;;;;;;;11.05;100.00;94766.38;5127637;28;20850;-57
2023/12/06 08:47:49;;;;;;;1.13;1.13;;;;;;;11.08;100.00;94787.03;5132037;27;20438;-56
2023/12/06 08:50:18;;;;;;;1.17;1.17;;;;;;;11.00;100.00;94785.00;5131630;28;20473;-56
2023/12/06 08:52:47;;;;;;;2.90;1.30;;;;;;;10.91;100.00;94778.72;5131694;27;20474;-56
2023/12/06 08:55:16;;;;;;;1.23;1.13;;;;;;;10.98;100.00;94777.31;5131697;27;20434;-56
2023/12/06 08:57:45;;;;;;;1.00;1.00;;;;;;;10.95;100.00;94783.19;5132275;28;20434;-56
2023/12/06 09:00:14;;;;;;;0.83;0.83;;;;;;;10.97;100.00;94770.44;5131877;27;20817;-56
2023/12/06 09:02:43;;;;;;;2.90;1.73;;;;;;;11.03;100.00;94774.59;5135961;27;20442;-57
2023/12/06 09:05:13;;;;;;;2.60;1.40;;;;;;;10.88;100.00;94779.31;5135661;27;20856;-56
2023/12/06 09:07:42;;;;;;;2.00;1.70;;;;;;;10.62;100.00;94773.50;5121965;27;20451;-56
2023/12/06 09:10:11;;;;;;;12.23;3.37;;;;;;;10.63;100.00;94770.56;5109410;27;20450;-57
2023/12/06 09:12:40;;;;;;;1.13;1.03;;;;;;;10.62;100.00;94765.56;5135089;27;20481;-57
2023/12/06 09:15:09;;;;;;;1.87;1.77;;;;;;;10.77;100.00;94770.69;5108609;27;20438;-56
2023/12/06 09:17:38;;;;;;;1.17;0.93;;;;;;;10.90;100.00;94769.22;5135194;27;20839;-56
2023/12/06 09:20:09;;;;;;;2.87;1.87;;;;;;;11.03;100.00;94763.97;5135469;27;20958;-56
2023/12/06 09:22:39;;;;;;;2.30;1.83;;;;;;;11.01;100.00;94762.69;5134447;27;20438;-56
2023/12/06 09:25:08;;;;;;;2.27;1.40;;;;;;;11.07;100.00;94764.22;5135522;27;20847;-57
2023/12/06 09:27:37;;;;;;;1.73;1.63;;;;;;;11.05;100.00;94758.41;5135405;27;20530;-56
2023/12/06 09:30:08;;;;;;;0.93;0.93;;;;;;;10.96;100.00;94752.16;5134335;27;20514;-56
2023/12/06 09:32:37;;;;;;;2.53;1.27;;;;;;;10.82;100.00;94749.44;5135289;27;20435;-56
2023/12/06 09:35:08;;;;;;;2.23;2.13;;;;;;;10.90;100.00;94748.00;5134955;27;20513;-57
2023/12/06 09:37:37;;;;;;;1.77;1.67;;;;;;;10.73;100.00;94745.81;5129968;27;20431;-56
2023/12/06 09:40:09;;;;;;;1.93;1.83;;;;;;;10.95;100.00;94745.28;5130813;27;20961;-57
2023/12/06 09:42:43;;;;;;;5.17;2.10;;;;;;;11.01;100.00;94733.53;5134888;27;20445;-56
2023/12/06 09:45:14;;;;;;;1.63;1.10;;;;;;;11.06;100.00;94736.91;5134775;27;20438;-57
2023/12/06 09:47:44;;;;;;;4.70;1.57;;;;;;;11.10;100.00;94737.94;5134950;27;20531;-57
2023/12/06 09:50:12;;;;;;;0.80;0.60;;;;;;;10.95;100.00;94724.06;5134159;27;20472;-57
2023/12/06 09:52:41;;;;;;;1.30;1.20;;;;;;;11.06;100.00;94744.84;5134531;27;20521;-56
2023/12/06 09:55:12;;;;;;;1.70;1.60;;;;;;;10.54;100.00;94650.41;5134801;27;20473;-57
2023/12/06 09:57:41;;;;;;;1.60;0.80;;;;;;;11.14;100.00;94733.63;5135293;27;20946;-56
2023/12/06 10:00:14;;;;;;;1.27;1.17;;;;;;;11.23;100.00;94731.88;5134195;27;20441;-56
2023/12/06 10:02:52;;;;;;;1.33;1.23;;;;;;;11.28;100.00;94723.84;5134700;27;20950;-56
2023/12/06 10:05:22;;;;;;;1.03;1.03;;;;;;;11.33;100.00;94728.31;5134782;27;20992;-56
2023/12/06 10:07:50;;;;;;;3.87;1.67;;;;;;;11.30;100.00;94726.25;5134120;27;20573;-57
2023/12/06 10:10:23;;;;;;;1.40;1.33;;;;;;;11.31;100.00;94722.50;5134724;27;20495;-56
2023/12/06 10:12:55;;;;;;;5.37;1.67;;;;;;;11.35;100.00;94721.66;5133080;27;20437;-56
2023/12/06 10:15:24;;;;;;;2.10;2.00;;;;;;;11.32;100.00;94722.22;5134494;27;20973;-55
2023/12/06 10:17:53;;;;;;;2.77;2.50;;;;;;;11.30;100.00;94726.25;5133793;27;20979;-55
2023/12/06 10:20:22;;;;;;;0.90;0.90;;;;;;;11.32;100.00;94724.88;5133466;27;20437;-56
2023/12/06 10:22:53;;;;;;;1.70;1.60;;;;;;;11.40;100.00;94726.09;5129638;27;20443;-55
2023/12/06 10:25:23;;;;;;;2.83;1.60;;;;;;;11.33;100.00;94715.81;5127848;27;20480;-56
2023/12/06 10:28:01;;;;;;;2.40;1.23;;;;;;;11.19;100.00;94717.63;5134110;27;20480;-56
2023/12/06 10:30:30;;;;;;;2.50;1.90;;;;;;;11.20;100.00;94715.78;5130806;27;20523;-55
2023/12/06 10:32:58;;;;;;;1.90;1.70;;;;;;;11.15;100.00;94713.19;5131015;27;20879;-56
2023/12/06 10:35:28;;;;;;;3.17;1.87;;;;;;;11.22;100.00;94716.28;5133650;27;20438;-56
2023/12/06 10:38:00;;;;;;;3.10;2.70;;;;;;;11.18;100.00;94715.28;5133802;27;20425;-57
2023/12/06 10:40:30;;;;;;;4.03;0.93;;;;;;;11.06;100.00;94691.81;5133825;27;20447;-56
2023/12/06 10:43:03;;;;;;;2.53;2.33;;;;;;;11.29;100.00;94716.69;5133865;27;20441;-56
2023/12/06 10:45:34;;;;;;;2.83;2.73;;;;;;;11.22;100.00;94716.28;5133847;27;20517;-56
2023/12/06 10:48:05;;;;;;;3.50;1.97;;;;;;;11.22;100.00;94706.44;5133930;27;20997;-56
2023/12/06 10:50:35;;;;;;;4.40;2.73;;;;;;;11.26;100.00;94715.41;5122515;27;20894;-56
2023/12/06 10:53:05;;;;;;;3.80;1.87;;;;;;;11.21;100.00;94709.38;5112964;27;20430;-56
2023/12/06 10:55:38;;;;;;;1.43;1.33;;;;;;;11.15;100.00;94713.19;5133587;27;20430;-56
2023/12/06 10:58:09;;;;;;;3.93;2.03;;;;;;;11.08;100.00;94696.84;5133459;27;20472;-55
2023/12/06 11:00:37;;;;;;;2.20;2.00;;;;;;;11.09;100.00;94720.44;5132994;27;20466;-56
2023/12/06 11:03:06;;;;;;;3.50;3.07;;;;;;;11.15;100.00;94719.28;5133234;27;20438;-55
2023/12/06 11:05:40;;;;;;;4.13;2.33;;;;;;;11.01;100.00;94713.09;5132843;27;20954;-55
2023/12/06 11:08:37;;;;;;;2.70;1.33;;;;;;;11.01;100.00;94713.09;5133359;27;20478;-56
2023/12/06 11:11:27;;;;;;;2.53;2.40;;;;;;;10.99;100.00;94711.81;5133515;27;20446;-56
2023/12/06 11:14:06;;;;;;;3.90;3.70;;;;;;;11.05;100.00;94716.78;5133082;27;20483;-55
2023/12/06 11:16:48;;;;;;;2.13;1.63;;;;;;;11.20;100.00;94707.81;5132879;27;20452;-56
2023/12/06 11:19:17;;;;;;;3.80;2.00;;;;;;;11.32;100.00;94713.47;5133467;27;20453;-56
2023/12/06 11:21:47;;;;;;;1.60;1.00;;;;;;;11.38;100.00;94709.69;5133503;27;20426;-56
2023/12/06 11:24:17;;;;;;;3.93;1.30;;;;;;;11.23;100.00;94707.25;5132835;27;20453;-56
2023/12/06 11:26:47;;;;;;;4.30;1.47;;;;;;;11.27;100.00;94709.03;5132825;27;20991;-55
2023/12/06 11:29:16;;;;;;;2.07;1.97;;;;;;;11.21;100.00;94717.34;5132981;27;20446;-55
2023/12/06 11:31:44;;;;;;;1.50;1.40;;;;;;;11.17;100.00;94709.19;5133676;27;20502;-56
2023/12/06 11:34:13;;;;;;;1.53;1.43;;;;;;;11.21;100.00;94714.69;5132417;27;20495;-56
2023/12/06 11:36:41;;;;;;;3.30;0.97;;;;;;;11.26;100.00;94710.09;5132139;27;20438;-56